Vingaren — OZ2131 — position and weather

sailwx.info

Track history (hours):
 
Tides and Currents Weather Stations Pressure Air Temp Water Temp Dewpoint Dewpoint Depression Visibility Wind Speed Wind Dir Waves Ship Positions

Vingaren

Last reported at 2017-Jan-17 23:28 UTC. Time now 2017-Jan-23 10:37 UTC.
Position N 59°13' E 017°37'.

Length 89 m; draft 4 m.

Type: Cargo ship. MMSI: 231844000.

Date/timePositionNaut miles runAvg speedWind from/ knotsBaromVisibWave heightAir tempDewpointWater temp
2017-Jan-17 23:28N 59°13' E 017°37'4 4.8
2017-Jan-17 22:33N 59°16' E 017°41'8 8.5
2017-Jan-17 21:33N 59°19' E 017°57'5 0.3
2017-Jan-17 05:14N 59°22' E 017°49'0 0.1
2017-Jan-17 04:31N 59°22' E 017°49'0 0.0
2017-Jan-17 03:31N 59°22' E 017°49'0 0.0
2017-Jan-17 02:31N 59°22' E 017°49'0 0.0
2017-Jan-17 00:31N 59°22' E 017°49'0 0.0
2017-Jan-16 23:25N 59°22' E 017°49'0 0.0
2017-Jan-16 22:31N 59°22' E 017°49'0 0.0
2017-Jan-16 21:07N 59°22' E 017°49'0 0.0
2017-Jan-16 19:24N 59°22' E 017°49'0 0.0
2017-Jan-16 18:27N 59°22' E 017°49'0 0.0
2017-Jan-16 17:15N 59°22' E 017°49'0 0.0
2017-Jan-16 16:27N 59°22' E 017°49'0 0.0
2017-Jan-16 15:30N 59°22' E 017°49'0 0.1
2017-Jan-16 13:33N 59°22' E 017°49'5 4.6
2017-Jan-16 12:33N 59°17' E 017°53'8 7.8
2017-Jan-16 11:33N 59°17' E 017°37'  
2017-Jan-13 06:29N 55°37' E 015°23'1011.0
2017-Jan-13 05:33N 55°33' E 015°07'1111.2
2017-Jan-13 04:33N 55°27' E 014°50'1110.9
2017-Jan-13 03:33N 55°20' E 014°35'1110.9
2017-Jan-13 02:33N 55°12' E 014°22'1111.0
2017-Jan-13 01:33N 55°11' E 014°03'1111.1
2017-Jan-13 00:32N 55°12' E 013°43'1111.2
2017-Jan-12 23:33N 55°13' E 013°24'1110.8
2017-Jan-12 22:33N 55°14' E 013°06'1110.8
2017-Jan-12 21:33N 55°16' E 012°47'1110.6
2017-Jan-12 20:33N 55°22' E 012°31'9 9.5
2017-Jan-12 19:33N 55°28' E 012°18'3 3.4
2017-Jan-12 18:33N 55°27' E 012°12'0 0.0
2017-Jan-12 17:33N 55°27' E 012°12'0 0.0
2017-Jan-12 16:33N 55°27' E 012°12'0 0.0
2017-Jan-12 15:33N 55°27' E 012°12'0 0.0
2017-Jan-12 14:33N 55°27' E 012°12'0 0.0
2017-Jan-12 13:33N 55°27' E 012°12'0 0.0
2017-Jan-12 12:27N 55°27' E 012°12'0 0.0
2017-Jan-12 11:33N 55°27' E 012°12'0 0.0
2017-Jan-12 09:33N 55°27' E 012°12'0 0.0
2017-Jan-12 08:33N 55°27' E 012°12'0 0.0
2017-Jan-12 07:21N 55°27' E 012°12'0 0.0
2017-Jan-10 17:04N 55°27' E 012°12'1 2.2
2017-Jan-10 16:33N 55°28' E 012°14'9 9.3
2017-Jan-10 15:34N 55°31' E 012°29'1 0.7
2017-Jan-10 14:33N 55°32' E 012°29'0 0.0
2017-Jan-10 13:33N 55°32' E 012°29'0 0.0
2017-Jan-10 12:33N 55°32' E 012°29'0 0.0
2017-Jan-10 11:33N 55°32' E 012°29'0 0.0
2017-Jan-10 10:33N 55°32' E 012°29'0 0.0
2017-Jan-10 09:33N 55°32' E 012°29'0 0.0
2017-Jan-10 08:33N 55°32' E 012°29'0 0.0
2017-Jan-10 07:33N 55°32' E 012°29'0 0.0
2017-Jan-10 06:33N 55°32' E 012°29'0 0.0
2017-Jan-10 05:33N 55°32' E 012°29'0 0.0
2017-Jan-10 04:33N 55°32' E 012°29'0 0.0
2017-Jan-10 03:33N 55°32' E 012°29'0 0.0
2017-Jan-10 02:30N 55°32' E 012°29'0 0.0
2017-Jan-10 01:33N 55°32' E 012°29'0 0.0
2017-Jan-10 00:33N 55°32' E 012°29'0 0.0
2017-Jan-09 23:33N 55°32' E 012°29'0 0.0
2017-Jan-09 22:33N 55°32' E 012°29'0 0.0
2017-Jan-09 21:33N 55°32' E 012°29'0 0.0
2017-Jan-09 20:33N 55°32' E 012°29'0 0.0
2017-Jan-09 19:33N 55°32' E 012°29'0 0.0
2017-Jan-09 18:33N 55°32' E 012°29'0 0.0
2017-Jan-09 17:33N 55°32' E 012°29'0 0.0
2017-Jan-09 16:33N 55°32' E 012°29'0 0.0
2017-Jan-09 15:33N 55°32' E 012°29'0 0.0
2017-Jan-09 14:33N 55°32' E 012°29'0 0.0
2017-Jan-09 13:33N 55°32' E 012°29'0 0.0
2017-Jan-09 12:32N 55°32' E 012°29'0 0.0
2017-Jan-09 11:32N 55°32' E 012°29'0 0.0
2017-Jan-09 10:32N 55°32' E 012°29'0 0.0
2017-Jan-09 09:32N 55°32' E 012°29'0 0.0
2017-Jan-09 08:32N 55°32' E 012°29'0 0.0
2017-Jan-09 07:32N 55°32' E 012°29'0 0.0
2017-Jan-09 06:32N 55°32' E 012°29'0 0.0
2017-Jan-09 05:32N 55°32' E 012°29'0 0.0
2017-Jan-09 04:32N 55°32' E 012°29'0 0.0
2017-Jan-09 03:32N 55°32' E 012°29'0 0.0
2017-Jan-09 02:32N 55°32' E 012°29'0 0.0
2017-Jan-09 01:32N 55°32' E 012°29'0 0.0
2017-Jan-09 00:32N 55°32' E 012°29'0 0.0
2017-Jan-08 23:32N 55°32' E 012°29'0 0.0
2017-Jan-08 22:32N 55°32' E 012°29'0 0.0
2017-Jan-08 21:32N 55°32' E 012°29'0 0.0
2017-Jan-08 20:32N 55°32' E 012°29'4 3.9
2017-Jan-08 19:34N 55°28' E 012°31'1010.0
2017-Jan-08 18:33N 55°19' E 012°39'10 9.8
2017-Jan-08 17:33N 55°16' E 012°55'1010.1
2017-Jan-08 16:33N 55°15' E 013°13'1010.5
2017-Jan-08 15:34N 55°15' E 013°31'1110.5
2017-Jan-08 14:33N 55°14' E 013°49'1110.6
2017-Jan-08 13:33N 55°14' E 014°08'10 9.7
2017-Jan-08 12:32N 55°18' E 014°24'1010.7
2017-Jan-08 11:33N 55°26' E 014°36'1110.8
2017-Jan-08 10:30N 55°32' E 014°53'1010.8
2017-Jan-08 09:32N 55°37' E 015°09'  
Track history (hours):
 
Tides and Currents Weather Stations Pressure Air Temp Water Temp Dewpoint Dewpoint Depression Visibility Wind Speed Wind Dir Waves Ship Positions

Vingaren

Last reported at 2017-Jan-17 23:28 UTC. Time now 2017-Jan-23 10:37 UTC.
Position N 59°13' E 017°37'.

Length 89 m; draft 4 m.

Type: Cargo ship. MMSI: 231844000.

Date/timePositionNaut miles runAvg speedWind from/ knotsBaromVisibWave heightAir tempDewpointWater temp
2017-Jan-17 23:28N 59°13' E 017°37'4 4.8
2017-Jan-17 22:33N 59°16' E 017°41'8 8.5
2017-Jan-17 21:33N 59°19' E 017°57'5 0.3
2017-Jan-17 05:14N 59°22' E 017°49'0 0.1
2017-Jan-17 04:31N 59°22' E 017°49'0 0.0
2017-Jan-17 03:31N 59°22' E 017°49'0 0.0
2017-Jan-17 02:31N 59°22' E 017°49'0 0.0
2017-Jan-17 00:31N 59°22' E 017°49'0 0.0
2017-Jan-16 23:25N 59°22' E 017°49'0 0.0
2017-Jan-16 22:31N 59°22' E 017°49'0 0.0
2017-Jan-16 21:07N 59°22' E 017°49'0 0.0
2017-Jan-16 19:24N 59°22' E 017°49'0 0.0
2017-Jan-16 18:27N 59°22' E 017°49'0 0.0
2017-Jan-16 17:15N 59°22' E 017°49'0 0.0
2017-Jan-16 16:27N 59°22' E 017°49'0 0.0
2017-Jan-16 15:30N 59°22' E 017°49'0 0.1
2017-Jan-16 13:33N 59°22' E 017°49'5 4.6
2017-Jan-16 12:33N 59°17' E 017°53'8 7.8
2017-Jan-16 11:33N 59°17' E 017°37'  
2017-Jan-13 06:29N 55°37' E 015°23'1011.0
2017-Jan-13 05:33N 55°33' E 015°07'1111.2
2017-Jan-13 04:33N 55°27' E 014°50'1110.9
2017-Jan-13 03:33N 55°20' E 014°35'1110.9
2017-Jan-13 02:33N 55°12' E 014°22'1111.0
2017-Jan-13 01:33N 55°11' E 014°03'1111.1
2017-Jan-13 00:32N 55°12' E 013°43'1111.2
2017-Jan-12 23:33N 55°13' E 013°24'1110.8
2017-Jan-12 22:33N 55°14' E 013°06'1110.8
2017-Jan-12 21:33N 55°16' E 012°47'1110.6
2017-Jan-12 20:33N 55°22' E 012°31'9 9.5
2017-Jan-12 19:33N 55°28' E 012°18'3 3.4
2017-Jan-12 18:33N 55°27' E 012°12'0 0.0
2017-Jan-12 17:33N 55°27' E 012°12'0 0.0
2017-Jan-12 16:33N 55°27' E 012°12'0 0.0
2017-Jan-12 15:33N 55°27' E 012°12'0 0.0
2017-Jan-12 14:33N 55°27' E 012°12'0 0.0
2017-Jan-12 13:33N 55°27' E 012°12'0 0.0
2017-Jan-12 12:27N 55°27' E 012°12'0 0.0
2017-Jan-12 11:33N 55°27' E 012°12'0 0.0
2017-Jan-12 09:33N 55°27' E 012°12'0 0.0
2017-Jan-12 08:33N 55°27' E 012°12'0 0.0
2017-Jan-12 07:21N 55°27' E 012°12'0 0.0
2017-Jan-10 17:04N 55°27' E 012°12'1 2.2
2017-Jan-10 16:33N 55°28' E 012°14'9 9.3
2017-Jan-10 15:34N 55°31' E 012°29'1 0.7
2017-Jan-10 14:33N 55°32' E 012°29'0 0.0
2017-Jan-10 13:33N 55°32' E 012°29'0 0.0
2017-Jan-10 12:33N 55°32' E 012°29'0 0.0
2017-Jan-10 11:33N 55°32' E 012°29'0 0.0
2017-Jan-10 10:33N 55°32' E 012°29'0 0.0
2017-Jan-10 09:33N 55°32' E 012°29'0 0.0
2017-Jan-10 08:33N 55°32' E 012°29'0 0.0
2017-Jan-10 07:33N 55°32' E 012°29'0 0.0
2017-Jan-10 06:33N 55°32' E 012°29'0 0.0
2017-Jan-10 05:33N 55°32' E 012°29'0 0.0
2017-Jan-10 04:33N 55°32' E 012°29'0 0.0
2017-Jan-10 03:33N 55°32' E 012°29'0 0.0
2017-Jan-10 02:30N 55°32' E 012°29'0 0.0
2017-Jan-10 01:33N 55°32' E 012°29'0 0.0
2017-Jan-10 00:33N 55°32' E 012°29'0 0.0
2017-Jan-09 23:33N 55°32' E 012°29'0 0.0
2017-Jan-09 22:33N 55°32' E 012°29'0 0.0
2017-Jan-09 21:33N 55°32' E 012°29'0 0.0
2017-Jan-09 20:33N 55°32' E 012°29'0 0.0
2017-Jan-09 19:33N 55°32' E 012°29'0 0.0
2017-Jan-09 18:33N 55°32' E 012°29'0 0.0
2017-Jan-09 17:33N 55°32' E 012°29'0 0.0
2017-Jan-09 16:33N 55°32' E 012°29'0 0.0
2017-Jan-09 15:33N 55°32' E 012°29'0 0.0
2017-Jan-09 14:33N 55°32' E 012°29'0 0.0
2017-Jan-09 13:33N 55°32' E 012°29'0 0.0
2017-Jan-09 12:32N 55°32' E 012°29'0 0.0
2017-Jan-09 11:32N 55°32' E 012°29'0 0.0
2017-Jan-09 10:32N 55°32' E 012°29'0 0.0
2017-Jan-09 09:32N 55°32' E 012°29'0 0.0
2017-Jan-09 08:32N 55°32' E 012°29'0 0.0
2017-Jan-09 07:32N 55°32' E 012°29'0 0.0
2017-Jan-09 06:32N 55°32' E 012°29'0 0.0
2017-Jan-09 05:32N 55°32' E 012°29'0 0.0
2017-Jan-09 04:32N 55°32' E 012°29'0 0.0
2017-Jan-09 03:32N 55°32' E 012°29'0 0.0
2017-Jan-09 02:32N 55°32' E 012°29'0 0.0
2017-Jan-09 01:32N 55°32' E 012°29'0 0.0
2017-Jan-09 00:32N 55°32' E 012°29'0 0.0
2017-Jan-08 23:32N 55°32' E 012°29'0 0.0
2017-Jan-08 22:32N 55°32' E 012°29'0 0.0
2017-Jan-08 21:32N 55°32' E 012°29'0 0.0
2017-Jan-08 20:32N 55°32' E 012°29'4 3.9
2017-Jan-08 19:34N 55°28' E 012°31'1010.0
2017-Jan-08 18:33N 55°19' E 012°39'10 9.8
2017-Jan-08 17:33N 55°16' E 012°55'1010.1
2017-Jan-08 16:33N 55°15' E 013°13'1010.5
2017-Jan-08 15:34N 55°15' E 013°31'1110.5
2017-Jan-08 14:33N 55°14' E 013°49'1110.6
2017-Jan-08 13:33N 55°14' E 014°08'10 9.7
2017-Jan-08 12:32N 55°18' E 014°24'1010.7
2017-Jan-08 11:33N 55°26' E 014°36'1110.8
2017-Jan-08 10:30N 55°32' E 014°53'1010.8
2017-Jan-08 09:32N 55°37' E 015°09'  

Dump ship's entire track history